Time;durP1;ratioP1;P1;durP2;ratioP2;P2;SDS_P1;SDS_P2;PMS_P1;PMS_P2;Temp;Humidity;BMP_temperature;BMP_pressure;BME280_temperature;BME280_humidity;BME280_pressure;Samples;Min_cycle;Max_cycle;Signal;HPM_P1;HPM_P2
2023/06/03 00:03:06;;;;;;;8.27;4.20;;;;;13.60;96426.00;;;;8235126;28;20245;-59
2023/06/03 00:07:09;;;;;;;10.95;4.40;;;;;13.60;96412.00;;;;8231563;28;20639;-60
2023/06/03 00:11:15;;;;;;;13.82;4.22;;;;;13.50;96411.00;;;;8232454;28;20298;-60
2023/06/03 00:15:18;;;;;;;12.50;4.57;;;;;13.50;96412.00;;;;8230427;28;20211;-59
2023/06/03 00:23:32;;;;;;;11.77;4.88;;;;;13.40;96411.00;;;;8226964;28;20318;-59
2023/06/03 00:27:41;;;;;;;12.18;5.13;;;;;13.30;96407.00;;;;8231553;28;20199;-61
2023/06/03 00:31:44;;;;;;;12.27;4.20;;;;;13.30;96405.00;;;;8222718;28;20202;-59
2023/06/03 00:35:53;;;;;;;6.97;3.85;;;;;13.30;96410.00;;;;8229769;28;20302;-59
2023/06/03 00:39:56;;;;;;;11.13;4.45;;;;;13.20;96410.00;;;;8224545;28;20368;-59
2023/06/03 00:44:00;;;;;;;8.57;4.28;;;;;13.20;96418.00;;;;8235285;28;20230;-60
2023/06/03 00:48:03;;;;;;;11.90;4.38;;;;;13.10;96416.00;;;;8237157;28;20229;-59
2023/06/03 00:52:08;;;;;;;12.23;4.35;;;;;13.10;96421.00;;;;8227707;28;20203;-60
2023/06/03 00:56:16;;;;;;;13.48;4.57;;;;;13.00;96427.00;;;;8230286;28;20270;-61
2023/06/03 01:00:22;;;;;;;14.65;4.20;;;;;13.00;96416.00;;;;8228159;28;20831;-59
2023/06/03 01:04:31;;;;;;;10.27;4.35;;;;;12.90;96416.00;;;;8231637;28;20241;-59
2023/06/03 01:08:46;;;;;;;11.82;4.55;;;;;12.90;96414.00;;;;8225335;28;20677;-59
2023/06/03 01:13:07;;;;;;;7.57;4.50;;;;;12.80;96414.00;;;;8224384;28;20409;-59
2023/06/03 01:17:15;;;;;;;8.73;3.97;;;;;12.80;96416.00;;;;8225325;28;20220;-59
2023/06/03 01:21:18;;;;;;;13.23;4.60;;;;;12.70;96415.00;;;;8227506;28;20195;-60
2023/06/03 01:25:27;;;;;;;12.40;4.35;;;;;12.70;96410.00;;;;8223792;28;20830;-60
2023/06/03 01:29:32;;;;;;;9.13;4.75;;;;;12.60;96413.00;;;;8225422;28;20214;-59
2023/06/03 01:33:40;;;;;;;8.85;4.35;;;;;12.60;96414.00;;;;8234128;28;20217;-60
2023/06/03 01:37:45;;;;;;;12.63;4.43;;;;;12.50;96416.00;;;;8225699;28;20302;-61
2023/06/03 01:41:51;;;;;;;12.50;4.32;;;;;12.50;96415.00;;;;8224412;28;20213;-59
2023/06/03 01:45:54;;;;;;;11.45;4.40;;;;;12.50;96409.00;;;;8218340;28;20207;-59
2023/06/03 01:49:58;;;;;;;10.07;4.90;;;;;12.50;96404.00;;;;8235191;28;20205;-60
2023/06/03 01:54:01;;;;;;;11.93;4.72;;;;;12.50;96406.00;;;;8226863;28;20233;-59
2023/06/03 01:58:06;;;;;;;7.20;3.95;;;;;12.40;96403.00;;;;8232393;28;20212;-60
2023/06/03 02:02:09;;;;;;;10.43;4.70;;;;;12.40;96405.00;;;;8229616;28;20250;-59
2023/06/03 02:06:15;;;;;;;10.57;3.70;;;;;12.40;96404.00;;;;8235921;28;20214;-60
2023/06/03 02:10:19;;;;;;;7.50;4.32;;;;;12.30;96412.00;;;;8227921;28;20256;-59
2023/06/03 02:14:25;;;;;;;9.95;4.35;;;;;12.30;96403.00;;;;8237704;28;20202;-59
2023/06/03 02:18:31;;;;;;;8.10;4.28;;;;;12.30;96402.00;;;;8238597;28;20250;-59
2023/06/03 02:22:38;;;;;;;7.80;4.22;;;;;12.40;96399.00;;;;8229931;28;20231;-60
2023/06/03 02:26:49;;;;;;;6.07;4.03;;;;;12.30;96402.00;;;;8236888;28;20250;-60
2023/06/03 02:30:55;;;;;;;10.77;4.30;;;;;12.30;96407.00;;;;8235623;28;20198;-59
2023/06/03 02:34:58;;;;;;;7.63;4.88;;;;;12.30;96403.00;;;;8239813;28;20287;-59
2023/06/03 02:39:04;;;;;;;6.70;4.10;;;;;12.20;96402.00;;;;8229577;28;20606;-59
2023/06/03 02:43:08;;;;;;;4.70;3.78;;;;;12.30;96393.00;;;;8230874;28;20225;-59
2023/06/03 02:47:15;;;;;;;10.82;4.55;;;;;12.30;96399.00;;;;8240126;28;20217;-59
2023/06/03 02:51:18;;;;;;;10.93;4.47;;;;;12.30;96394.00;;;;8232812;28;20207;-60
2023/06/03 02:55:23;;;;;;;10.85;5.10;;;;;12.30;96405.00;;;;8230620;28;20202;-59
2023/06/03 02:59:26;;;;;;;6.20;4.28;;;;;12.30;96407.00;;;;8232337;28;20309;-59
2023/06/03 03:03:57;;;;;;;10.32;4.85;;;;;12.30;96394.00;;;;8278268;23;20315;-95
2023/06/03 03:16:51;;;;;;;8.68;4.50;;;;;12.60;96416.00;;;;8291656;28;20217;-95
2023/06/03 03:21:25;;;;;;;10.10;4.80;;;;;12.60;96415.00;;;;8293005;28;20210;-95
2023/06/03 03:30:27;;;;;;;11.25;4.97;;;;;12.60;96423.00;;;;8292483;28;20209;-94
2023/06/03 03:34:36;;;;;;;11.75;5.07;;;;;12.60;96425.00;;;;8290926;28;20232;-94
2023/06/03 03:39:37;;;;;;;10.27;5.20;;;;;12.60;96421.00;;;;8289348;28;20210;-95
2023/06/03 03:43:56;;;;;;;8.43;4.72;;;;;12.60;96424.00;;;;8291531;28;20624;-96
2023/06/03 03:48:31;;;;;;;11.18;5.53;;;;;12.60;96423.00;;;;8292557;28;20185;-95
2023/06/03 03:57:45;;;;;;;8.98;5.15;;;;;12.70;96415.00;;;;8291713;28;20206;-96
2023/06/03 04:07:55;;;;;;;8.30;5.35;;;;;13.00;96425.00;;;;8300560;28;20541;-96
2023/06/03 05:10:17;;;;;;;7.45;4.93;;;;;15.30;96461.00;;;;8354776;28;20332;-95
2023/06/03 05:14:41;;;;;;;9.57;5.25;;;;;15.30;96476.00;;;;8338064;28;20545;-96
2023/06/03 05:34:10;;;;;;;10.40;5.25;;;;;15.20;96463.00;;;;8364802;28;20196;-96
2023/06/03 05:59:34;;;;;;;10.27;4.95;;;;;16.40;96468.00;;;;8382812;28;20193;-96
2023/06/03 06:46:42;;;;;;;9.90;5.25;;;;;19.50;96485.00;;;;8290298;23;20244;-59
2023/06/03 06:50:49;;;;;;;8.27;5.05;;;;;19.70;96486.00;;;;8343478;28;20212;-58
2023/06/03 06:54:54;;;;;;;11.95;5.78;;;;;19.80;96487.00;;;;8344447;28;20211;-59
2023/06/03 06:58:58;;;;;;;10.77;5.32;;;;;20.00;96488.00;;;;8352613;28;20256;-60
2023/06/03 07:03:02;;;;;;;10.48;5.55;;;;;20.20;96476.00;;;;8324228;28;20253;-60
2023/06/03 07:07:06;;;;;;;9.82;5.15;;;;;20.40;96491.00;;;;8298600;28;20729;-59
2023/06/03 07:11:13;;;;;;;8.98;5.60;;;;;20.40;96477.00;;;;8312556;28;20204;-59
2023/06/03 07:15:18;;;;;;;10.02;5.80;;;;;20.80;96487.00;;;;8318846;28;20236;-59
2023/06/03 07:19:23;;;;;;;10.90;5.43;;;;;21.10;96486.00;;;;8313597;28;20229;-60
2023/06/03 07:23:28;;;;;;;16.30;5.22;;;;;21.00;96488.00;;;;8316345;28;20264;-59
2023/06/03 07:27:31;;;;;;;9.93;5.10;;;;;20.90;96485.00;;;;8310538;28;20264;-59
2023/06/03 07:31:37;;;;;;;14.43;6.32;;;;;21.10;96495.00;;;;8316676;28;20190;-59
2023/06/03 07:35:43;;;;;;;9.50;5.07;;;;;21.40;96490.00;;;;8311201;28;20205;-60
2023/06/03 07:39:47;;;;;;;10.55;5.78;;;;;21.70;96487.00;;;;8316006;28;20243;-60
2023/06/03 07:43:50;;;;;;;11.10;5.20;;;;;22.50;96496.00;;;;8315396;28;20256;-60
2023/06/03 07:47:54;;;;;;;9.00;4.80;;;;;22.70;96497.00;;;;8316727;28;20253;-60
2023/06/03 07:52:04;;;;;;;11.55;5.28;;;;;23.30;96494.00;;;;8314485;28;20229;-59
2023/06/03 07:56:11;;;;;;;8.90;4.88;;;;;24.00;96497.00;;;;8312635;28;20292;-61
2023/06/03 08:00:17;;;;;;;11.55;5.50;;;;;24.20;96501.00;;;;8307050;28;20212;-60
2023/06/03 08:04:31;;;;;;;10.85;5.40;;;;;24.40;96502.00;;;;8310024;28;20239;-60
2023/06/03 08:08:36;;;;;;;8.85;5.05;;;;;24.70;96500.00;;;;8311336;28;20750;-59
2023/06/03 08:12:45;;;;;;;8.00;5.15;;;;;24.80;96509.00;;;;8302857;28;20194;-60
2023/06/03 08:16:48;;;;;;;11.80;5.28;;;;;24.90;96502.00;;;;8310921;28;20255;-59
2023/06/03 08:20:54;;;;;;;6.72;5.03;;;;;24.90;96515.00;;;;8311496;28;20201;-59
2023/06/03 08:24:59;;;;;;;8.82;5.25;;;;;24.70;96512.00;;;;8313723;28;20233;-61
2023/06/03 08:29:08;;;;;;;8.05;5.45;;;;;25.20;96515.00;;;;8309699;28;20240;-61
2023/06/03 08:33:15;;;;;;;8.23;5.38;;;;;25.50;96508.00;;;;8315856;28;20267;-61
2023/06/03 08:37:19;;;;;;;10.30;5.38;;;;;25.90;96513.00;;;;8301229;28;20210;-60
2023/06/03 08:41:28;;;;;;;11.75;4.85;;;;;26.20;96517.00;;;;8312273;28;20636;-60
2023/06/03 08:45:39;;;;;;;11.30;4.85;;;;;26.80;96509.00;;;;8313429;28;20224;-60
2023/06/03 08:49:56;;;;;;;8.25;5.00;;;;;27.10;96509.00;;;;8306053;28;20734;-61
2023/06/03 08:53:59;;;;;;;9.63;5.10;;;;;27.20;96522.00;;;;8308390;28;20194;-60
2023/06/03 08:58:20;;;;;;;11.98;5.40;;;;;27.50;96518.00;;;;8307789;28;20209;-60
2023/06/03 09:02:24;;;;;;;10.77;5.20;;;;;27.90;96518.00;;;;8313090;28;20240;-61
2023/06/03 09:06:30;;;;;;;6.72;4.85;;;;;28.30;96516.00;;;;8314180;28;20848;-60
2023/06/03 09:10:33;;;;;;;9.85;5.07;;;;;27.50;96516.00;;;;8314738;28;20776;-61
2023/06/03 09:14:48;;;;;;;9.02;5.03;;;;;27.20;96501.00;;;;8303207;28;20691;-60
2023/06/03 09:18:54;;;;;;;6.72;5.05;;;;;27.20;96511.00;;;;8305212;28;20225;-60
2023/06/03 09:22:58;;;;;;;11.38;5.18;;;;;27.30;96513.00;;;;8313648;28;20320;-60
2023/06/03 09:27:01;;;;;;;12.27;5.20;;;;;27.00;96510.00;;;;8315232;28;20247;-60
2023/06/03 09:31:08;;;;;;;12.55;5.97;;;;;26.70;96513.00;;;;8312721;28;20205;-60
2023/06/03 09:35:13;;;;;;;10.88;5.10;;;;;26.30;96508.00;;;;8304020;28;20213;-60
2023/06/03 09:39:17;;;;;;;8.85;4.97;;;;;26.40;96516.00;;;;8305863;28;20709;-59
2023/06/03 09:43:23;;;;;;;9.30;4.82;;;;;26.90;96516.00;;;;8310988;28;20678;-59
2023/06/03 09:47:35;;;;;;;12.45;5.38;;;;;27.40;96517.00;;;;8309403;28;20577;-59
2023/06/03 09:51:42;;;;;;;12.50;5.63;;;;;26.40;96515.00;;;;8305761;28;20247;-60
2023/06/03 09:55:46;;;;;;;9.90;5.80;;;;;26.10;96521.00;;;;8308455;28;20562;-62
2023/06/03 10:00:07;;;;;;;13.63;5.60;;;;;26.60;96515.00;;;;8309210;28;20915;-60
2023/06/03 10:04:12;;;;;;;9.57;5.20;;;;;27.20;96526.00;;;;8309728;28;20229;-60
2023/06/03 10:08:15;;;;;;;9.00;4.80;;;;;26.90;96527.00;;;;8310377;28;20205;-60
2023/06/03 10:12:29;;;;;;;10.23;5.40;;;;;25.90;96506.00;;;;8310539;28;20664;-59
2023/06/03 10:16:32;;;;;;;10.93;5.30;;;;;25.30;96512.00;;;;8303487;28;20208;-60
2023/06/03 10:20:39;;;;;;;10.00;4.88;;;;;26.10;96508.00;;;;8309584;28;20642;-61
2023/06/03 10:24:45;;;;;;;7.30;4.70;;;;;27.40;96510.00;;;;8306921;28;20794;-59
2023/06/03 10:28:53;;;;;;;9.07;5.50;;;;;27.80;96506.00;;;;8314108;28;20197;-59
2023/06/03 10:32:58;;;;;;;6.57;4.65;;;;;27.50;96502.00;;;;8313763;28;20325;-60
2023/06/03 10:37:05;;;;;;;11.35;4.95;;;;;27.70;96506.00;;;;8307758;28;20240;-60
2023/06/03 10:41:12;;;;;;;5.80;4.78;;;;;27.60;96498.00;;;;8312904;28;20289;-60
2023/06/03 10:45:18;;;;;;;7.03;4.70;;;;;26.70;96496.00;;;;8308585;28;20229;-59
2023/06/03 10:49:27;;;;;;;9.90;4.72;;;;;26.40;96498.00;;;;8310207;28;20214;-60
2023/06/03 10:53:45;;;;;;;6.63;4.53;;;;;25.50;96501.00;;;;8309263;28;20285;-59
2023/06/03 10:58:01;;;;;;;10.43;4.22;;;;;25.00;96491.00;;;;8308805;28;20706;-60
2023/06/03 11:02:07;;;;;;;7.72;4.20;;;;;24.50;96493.00;;;;8306395;28;20702;-59
2023/06/03 11:06:39;;;;;;;5.70;4.40;;;;;23.90;96497.00;;;;8310962;28;20233;-60
2023/06/03 11:10:47;;;;;;;10.48;4.63;;;;;23.70;96495.00;;;;8301271;28;20745;-60
2023/06/03 11:14:57;;;;;;;10.40;4.85;;;;;24.40;96493.00;;;;8308476;28;20911;-59
2023/06/03 11:19:27;;;;;;;9.27;4.63;;;;;25.10;96494.00;;;;8308389;28;20205;-60
2023/06/03 11:23:41;;;;;;;8.43;4.55;;;;;25.10;96502.00;;;;8307080;28;20208;-61
2023/06/03 11:27:47;;;;;;;6.47;4.43;;;;;24.20;96504.00;;;;8307778;28;20280;-60
2023/06/03 11:32:11;;;;;;;11.77;4.75;;;;;23.80;96498.00;;;;8310304;28;20208;-60
2023/06/03 11:36:47;;;;;;;8.90;4.35;;;;;23.70;96489.00;;;;8305671;28;20240;-59
2023/06/03 11:40:52;;;;;;;5.93;4.35;;;;;25.10;96488.00;;;;8204965;28;20282;-60
2023/06/03 11:45:27;;;;;;;15.30;4.50;;;;;26.50;96479.00;;;;8254711;28;20231;-60
2023/06/03 11:49:35;;;;;;;34.97;5.40;;;;;27.40;96490.00;;;;8313784;28;21065;-60
2023/06/03 11:53:40;;;;;;;7.50;4.82;;;;;27.90;96479.00;;;;8316038;28;20348;-60
2023/06/03 11:57:43;;;;;;;6.15;4.35;;;;;28.10;96476.00;;;;8316700;28;20312;-60
2023/06/03 12:02:00;;;;;;;7.72;4.68;;;;;28.50;96472.00;;;;8315821;28;20738;-58
2023/06/03 12:06:11;;;;;;;11.27;3.88;;;;;28.90;96468.00;;;;8310768;28;20225;-59
2023/06/03 12:10:14;;;;;;;8.57;4.72;;;;;28.90;96465.00;;;;8314643;28;20705;-59
2023/06/03 12:14:29;;;;;;;10.38;4.57;;;;;29.30;96461.00;;;;8314901;28;20289;-59
2023/06/03 12:18:39;;;;;;;8.43;4.13;;;;;30.30;96454.00;;;;8312530;28;20936;-59
2023/06/03 12:22:43;;;;;;;7.15;3.83;;;;;31.30;96455.00;;;;8309990;28;20303;-59
2023/06/03 12:26:48;;;;;;;6.05;4.30;;;;;30.80;96455.00;;;;8303514;28;20230;-59
2023/06/03 12:30:52;;;;;;;5.55;3.90;;;;;30.60;96454.00;;;;8310725;28;20197;-59
2023/06/03 12:34:57;;;;;;;7.38;4.65;;;;;29.80;96453.00;;;;8308977;28;20197;-59
2023/06/03 12:39:02;;;;;;;9.23;4.93;;;;;29.20;96459.00;;;;8311119;28;20213;-59
2023/06/03 12:43:18;;;;;;;44.58;5.60;;;;;28.60;96454.00;;;;8311116;28;20210;-59
2023/06/03 12:47:44;;;;;;;8.18;4.20;;;;;28.70;96440.00;;;;8305007;28;20278;-57
2023/06/03 12:51:50;;;;;;;8.85;4.50;;;;;28.70;96445.00;;;;8315269;28;20213;-61
2023/06/03 12:55:53;;;;;;;9.85;3.85;;;;;28.00;96437.00;;;;8311848;28;20199;-59
2023/06/03 13:00:04;;;;;;;6.57;3.83;;;;;27.20;96443.00;;;;8315393;28;20216;-61
2023/06/03 13:04:07;;;;;;;6.35;3.92;;;;;26.90;96446.00;;;;8311156;28;20244;-61
2023/06/03 13:08:15;;;;;;;6.75;3.45;;;;;26.60;96436.00;;;;8312878;28;20324;-60
2023/06/03 13:12:21;;;;;;;5.10;3.63;;;;;26.90;96441.00;;;;8313592;28;20280;-60
2023/06/03 13:16:24;;;;;;;4.72;3.80;;;;;27.00;96437.00;;;;8315233;28;20272;-61
2023/06/03 13:20:28;;;;;;;6.85;4.07;;;;;27.60;96432.00;;;;8313498;28;20220;-61
2023/06/03 13:24:32;;;;;;;4.78;3.65;;;;;27.80;96432.00;;;;8308430;28;20212;-60
2023/06/03 13:28:37;;;;;;;16.65;3.88;;;;;27.90;96434.00;;;;8299744;28;20229;-60
2023/06/03 13:32:41;;;;;;;5.88;3.88;;;;;28.10;96426.00;;;;8310462;28;20201;-59
2023/06/03 13:36:44;;;;;;;7.22;3.78;;;;;28.30;96425.00;;;;8313073;28;20787;-60
2023/06/03 13:40:49;;;;;;;6.80;4.00;;;;;28.50;96426.00;;;;8306501;28;20211;-58
2023/06/03 13:44:52;;;;;;;6.28;3.38;;;;;28.70;96405.00;;;;8308241;28;20240;-59
2023/06/03 13:48:55;;;;;;;5.97;4.00;;;;;29.40;96404.00;;;;8314150;28;20785;-59
2023/06/03 13:52:58;;;;;;;8.20;4.60;;;;;29.10;96409.00;;;;8313579;28;20198;-60
2023/06/03 13:57:03;;;;;;;5.53;3.92;;;;;29.10;96409.00;;;;8310898;28;20202;-59
2023/06/03 14:01:09;;;;;;;6.40;4.05;;;;;29.20;96406.00;;;;8314775;28;20209;-59
2023/06/03 14:05:14;;;;;;;7.95;3.55;;;;;28.30;96405.00;;;;8318070;28;20283;-72
2023/06/03 14:09:17;;;;;;;4.95;4.10;;;;;27.90;96406.00;;;;8314391;28;20315;-67
2023/06/03 14:13:28;;;;;;;6.85;3.72;;;;;28.50;96398.00;;;;8439119;23;20283;-73
2023/06/03 14:17:31;;;;;;;6.07;3.80;;;;;28.70;96395.00;;;;8307274;28;20201;-71
2023/06/03 14:21:40;;;;;;;5.45;3.97;;;;;28.80;96389.00;;;;8322673;28;20204;-72
2023/06/03 14:25:45;;;;;;;5.45;4.22;;;;;28.70;96397.00;;;;8318442;28;20197;-71
2023/06/03 14:29:50;;;;;;;8.57;4.10;;;;;28.80;96393.00;;;;8321760;28;20907;-70
2023/06/03 14:33:53;;;;;;;5.78;3.70;;;;;28.90;96389.00;;;;8320384;28;20196;-72
2023/06/03 14:38:00;;;;;;;5.80;3.38;;;;;28.80;96381.00;;;;8321451;28;20685;-67
2023/06/03 14:42:07;;;;;;;7.07;4.03;;;;;28.70;96379.00;;;;8309382;28;20208;-70
2023/06/03 14:50:28;;;;;;;4.68;3.65;;;;;28.40;96374.00;;;;8395236;23;20253;-70
2023/06/03 14:54:33;;;;;;;8.07;4.07;;;;;28.40;96374.00;;;;8337940;28;20494;-71
2023/06/03 14:58:40;;;;;;;4.60;3.70;;;;;28.60;96368.00;;;;8345457;28;20203;-68
2023/06/03 15:02:46;;;;;;;5.68;3.83;;;;;28.70;96367.00;;;;8349202;28;20211;-73
2023/06/03 15:06:55;;;;;;;5.93;4.00;;;;;29.00;96366.00;;;;8349203;28;20294;-69
2023/06/03 15:10:58;;;;;;;9.07;3.70;;;;;28.70;96361.00;;;;8346310;28;20591;-69
2023/06/03 15:15:03;;;;;;;4.32;3.83;;;;;28.50;96372.00;;;;8347020;28;20669;-68
2023/06/03 15:19:06;;;;;;;7.50;3.58;;;;;28.20;96365.00;;;;8346142;28;20197;-68
2023/06/03 15:23:11;;;;;;;5.07;4.05;;;;;28.20;96363.00;;;;8355172;28;20192;-68
2023/06/03 15:27:15;;;;;;;4.50;3.70;;;;;28.10;96368.00;;;;8353116;28;20949;-68
2023/06/03 15:31:18;;;;;;;8.13;4.53;;;;;28.00;96360.00;;;;8350083;28;20201;-68
2023/06/03 15:35:23;;;;;;;8.73;4.28;;;;;27.90;96349.00;;;;8349000;28;20196;-68
2023/06/03 15:39:28;;;;;;;5.38;3.70;;;;;27.90;96350.00;;;;8353621;28;20204;-68
2023/06/03 15:43:35;;;;;;;6.60;3.75;;;;;27.70;96354.00;;;;8369564;28;20231;-68
2023/06/03 15:47:39;;;;;;;8.32;4.28;;;;;26.90;96350.00;;;;8346319;28;20247;-69
2023/06/03 15:51:46;;;;;;;8.05;4.00;;;;;26.70;96349.00;;;;8334616;28;20203;-68
2023/06/03 15:55:51;;;;;;;5.03;3.70;;;;;27.00;96342.00;;;;8332926;28;20196;-68
2023/06/03 15:59:57;;;;;;;9.20;3.92;;;;;27.20;96346.00;;;;8335006;28;20228;-68
2023/06/03 16:04:03;;;;;;;7.10;4.50;;;;;27.40;96349.00;;;;8339923;28;20207;-68
2023/06/03 16:08:07;;;;;;;8.60;3.88;;;;;27.50;96352.00;;;;8337102;28;20277;-69
2023/06/03 16:12:11;;;;;;;5.53;3.65;;;;;27.40;96344.00;;;;8330044;28;20236;-69
2023/06/03 16:16:14;;;;;;;6.65;3.85;;;;;27.50;96346.00;;;;8333031;28;20658;-68
2023/06/03 16:20:18;;;;;;;5.95;4.03;;;;;27.60;96345.00;;;;8331557;28;20813;-69
2023/06/03 16:24:21;;;;;;;6.40;3.90;;;;;27.60;96345.00;;;;8331663;28;20247;-68
2023/06/03 16:28:25;;;;;;;7.97;4.07;;;;;27.40;96341.00;;;;8329223;28;20232;-70
2023/06/03 16:32:32;;;;;;;4.03;3.60;;;;;26.90;96340.00;;;;8323694;28;20785;-71
2023/06/03 16:36:36;;;;;;;7.18;4.53;;;;;27.00;96346.00;;;;8323727;28;20224;-69
2023/06/03 16:40:39;;;;;;;5.28;3.88;;;;;27.10;96354.00;;;;8334014;28;20220;-69
2023/06/03 16:44:46;;;;;;;9.30;3.75;;;;;26.80;96350.00;;;;8330972;28;20219;-69
2023/06/03 16:48:50;;;;;;;4.22;3.60;;;;;26.50;96353.00;;;;8330469;28;20225;-69
2023/06/03 16:52:53;;;;;;;10.90;4.80;;;;;26.70;96360.00;;;;8318381;28;20599;-68
2023/06/03 16:56:58;;;;;;;5.03;3.83;;;;;26.90;96355.00;;;;8321223;28;20231;-69
2023/06/03 17:01:03;;;;;;;7.20;3.97;;;;;27.30;96358.00;;;;8324860;28;20200;-68
2023/06/03 17:05:10;;;;;;;4.68;4.13;;;;;27.60;96361.00;;;;8321190;28;20194;-67
2023/06/03 17:09:15;;;;;;;4.45;3.85;;;;;28.00;96362.00;;;;8308722;28;20263;-67
2023/06/03 17:13:18;;;;;;;6.82;4.18;;;;;28.40;96366.00;;;;8325361;28;20314;-67
2023/06/03 17:17:27;;;;;;;8.32;4.15;;;;;28.60;96362.00;;;;8327844;28;20650;-68
2023/06/03 17:21:30;;;;;;;5.40;3.72;;;;;28.30;96366.00;;;;8329073;28;20255;-70
2023/06/03 17:25:37;;;;;;;6.82;3.40;;;;;28.20;96365.00;;;;8326790;28;20652;-67
2023/06/03 17:29:40;;;;;;;7.93;3.75;;;;;28.10;96364.00;;;;8321072;28;20235;-68
2023/06/03 17:33:46;;;;;;;3.67;3.35;;;;;28.10;96371.00;;;;8318046;28;20225;-66
2023/06/03 17:37:54;;;;;;;6.07;3.20;;;;;28.20;96376.00;;;;8329051;28;20212;-65
2023/06/03 17:41:57;;;;;;;7.18;3.50;;;;;28.00;96370.00;;;;8327982;28;20585;-66
2023/06/03 17:46:00;;;;;;;4.90;3.20;;;;;28.10;96379.00;;;;8327181;28;20231;-67
2023/06/03 17:50:05;;;;;;;8.20;3.13;;;;;27.70;96376.00;;;;8325716;28;20672;-64
2023/06/03 17:54:10;;;;;;;4.40;3.35;;;;;26.90;96374.00;;;;8324054;28;21066;-65
2023/06/03 17:58:13;;;;;;;7.13;3.00;;;;;25.80;96374.00;;;;8320626;28;20245;-65
2023/06/03 18:02:16;;;;;;;3.47;3.15;;;;;24.70;96372.00;;;;8325811;28;21036;-71
2023/06/03 18:06:21;;;;;;;14.68;3.40;;;;;23.90;96379.00;;;;8323286;28;20643;-69
2023/06/03 18:10:24;;;;;;;4.82;3.00;;;;;23.40;96381.00;;;;8327947;28;20714;-69
2023/06/03 18:14:28;;;;;;;6.38;3.10;;;;;22.90;96387.00;;;;8330573;28;20216;-70
2023/06/03 18:18:33;;;;;;;5.45;3.10;;;;;22.60;96392.00;;;;8317447;28;20297;-71
2023/06/03 18:22:40;;;;;;;4.38;3.40;;;;;22.30;96389.00;;;;8333813;28;20202;-70
2023/06/03 18:26:46;;;;;;;8.40;3.30;;;;;22.10;96392.00;;;;8329400;28;20197;-70
2023/06/03 18:30:49;;;;;;;6.47;2.70;;;;;21.80;96394.00;;;;8322444;28;20359;-69
2023/06/03 18:34:55;;;;;;;4.00;2.85;;;;;21.50;96400.00;;;;8329301;28;20287;-67
2023/06/03 18:39:02;;;;;;;3.85;2.63;;;;;21.30;96399.00;;;;8327562;28;20201;-71
2023/06/03 18:43:06;;;;;;;6.68;3.20;;;;;21.00;96402.00;;;;8323754;28;20232;-68
2023/06/03 18:47:10;;;;;;;7.72;2.83;;;;;20.80;96401.00;;;;8319961;28;20229;-68
2023/06/03 18:51:20;;;;;;;4.32;2.63;;;;;20.60;96405.00;;;;8322285;28;20215;-68
2023/06/03 18:55:28;;;;;;;5.60;2.53;;;;;20.30;96402.00;;;;8326970;28;20204;-69
2023/06/03 18:59:36;;;;;;;22.98;3.70;;;;;20.10;96410.00;;;;8327869;28;20208;-69
2023/06/03 19:03:40;;;;;;;3.53;2.58;;;;;19.90;96409.00;;;;8329854;28;20250;-68
2023/06/03 19:07:43;;;;;;;3.75;2.53;;;;;19.60;96414.00;;;;8332729;28;20581;-70
2023/06/03 19:11:49;;;;;;;2.53;2.33;;;;;19.40;96416.00;;;;8325332;28;20270;-68
2023/06/03 19:15:57;;;;;;;3.20;2.20;;;;;19.20;96427.00;;;;8341453;28;20220;-67
2023/06/03 19:20:07;;;;;;;3.28;2.50;;;;;19.10;96429.00;;;;8335313;28;20674;-69
2023/06/03 19:24:12;;;;;;;4.72;2.60;;;;;18.90;96432.00;;;;8324345;28;20229;-68
2023/06/03 19:28:22;;;;;;;12.73;2.53;;;;;18.70;96438.00;;;;8318629;28;20228;-66
2023/06/03 19:32:25;;;;;;;3.72;2.38;;;;;18.60;96445.00;;;;8328561;28;20201;-67
2023/06/03 19:36:29;;;;;;;4.70;2.30;;;;;18.40;96445.00;;;;8324482;28;20606;-68
2023/06/03 19:40:33;;;;;;;5.88;2.38;;;;;18.30;96445.00;;;;8334109;28;20201;-68
2023/06/03 19:44:38;;;;;;;4.63;2.17;;;;;18.10;96454.00;;;;8321488;28;20752;-66
2023/06/03 19:48:44;;;;;;;2.65;2.03;;;;;18.00;96456.00;;;;8321987;28;20268;-69
2023/06/03 19:52:51;;;;;;;3.83;2.30;;;;;17.90;96457.00;;;;8327946;28;20213;-67
2023/06/03 19:56:59;;;;;;;5.13;2.28;;;;;17.90;96458.00;;;;8320574;28;20202;-67
2023/06/03 20:01:07;;;;;;;5.95;2.35;;;;;17.80;96455.00;;;;8325209;28;20283;-67
2023/06/03 20:05:12;;;;;;;2.95;1.90;;;;;17.70;96469.00;;;;8324181;28;20197;-67
2023/06/03 20:09:18;;;;;;;3.10;1.98;;;;;17.60;96467.00;;;;8323945;28;20788;-63
2023/06/03 20:13:21;;;;;;;2.95;1.80;;;;;17.50;96466.00;;;;8331253;28;20637;-63
2023/06/03 20:17:40;;;;;;;2.70;2.00;;;;;17.30;96461.00;;;;8327548;28;20201;-63
2023/06/03 20:21:46;;;;;;;2.78;1.85;;;;;17.30;96464.00;;;;8327127;28;20259;-63
2023/06/03 20:25:49;;;;;;;2.50;2.00;;;;;17.20;96465.00;;;;8331563;28;20287;-63
2023/06/03 20:29:52;;;;;;;2.17;1.67;;;;;17.10;96468.00;;;;8330833;28;20225;-63
2023/06/03 20:34:00;;;;;;;3.15;1.90;;;;;17.00;96466.00;;;;8324514;28;20212;-63
2023/06/03 20:38:04;;;;;;;2.03;1.83;;;;;16.90;96469.00;;;;8325614;28;20198;-63
2023/06/03 20:42:08;;;;;;;4.25;1.77;;;;;16.80;96471.00;;;;8324249;28;20203;-63
2023/06/03 20:46:15;;;;;;;3.85;1.88;;;;;16.80;96469.00;;;;8319006;28;20193;-64
2023/06/03 20:50:20;;;;;;;2.88;1.67;;;;;16.80;96470.00;;;;8319504;28;20229;-64
2023/06/03 20:54:24;;;;;;;3.05;1.60;;;;;16.70;96472.00;;;;8327882;28;20637;-72
2023/06/03 20:58:27;;;;;;;7.38;1.70;;;;;16.60;96470.00;;;;8337285;28;20854;-70
2023/06/03 21:02:32;;;;;;;7.82;2.33;;;;;16.60;96463.00;;;;8324026;28;20288;-72
2023/06/03 21:06:39;;;;;;;4.07;1.80;;;;;16.50;96464.00;;;;8335588;28;20236;-72
2023/06/03 21:10:46;;;;;;;2.20;1.75;;;;;16.50;96467.00;;;;8323769;28;20268;-72
2023/06/03 21:14:50;;;;;;;3.47;1.75;;;;;16.40;96464.00;;;;8333405;28;20193;-73
2023/06/03 21:18:57;;;;;;;4.38;1.80;;;;;16.40;96469.00;;;;8329776;28;20240;-69
2023/06/03 21:23:01;;;;;;;1.90;1.70;;;;;16.30;96467.00;;;;8329377;28;20671;-70
2023/06/03 21:27:08;;;;;;;2.15;1.70;;;;;16.20;96469.00;;;;8323949;28;20212;-70
2023/06/03 21:31:11;;;;;;;3.35;1.80;;;;;16.20;96466.00;;;;8331390;28;20233;-71
2023/06/03 21:35:17;;;;;;;2.10;1.50;;;;;16.10;96477.00;;;;8335613;28;20211;-72
2023/06/03 21:39:26;;;;;;;1.80;1.70;;;;;16.00;96470.00;;;;8330227;28;20655;-72
2023/06/03 21:43:29;;;;;;;4.10;2.10;;;;;15.90;96475.00;;;;8326556;28;20739;-69
2023/06/03 21:47:33;;;;;;;2.17;1.63;;;;;15.90;96476.00;;;;8323228;28;20228;-69
2023/06/03 21:51:36;;;;;;;5.43;2.10;;;;;15.80;96468.00;;;;8334531;28;20221;-71
2023/06/03 21:55:41;;;;;;;3.17;1.98;;;;;15.80;96471.00;;;;8323416;28;20201;-71
2023/06/03 21:59:45;;;;;;;3.60;1.77;;;;;15.80;96474.00;;;;8319346;28;20193;-69
2023/06/03 22:03:48;;;;;;;2.47;1.60;;;;;15.70;96464.00;;;;8317690;28;20734;-69
2023/06/03 22:07:52;;;;;;;3.47;2.00;;;;;15.70;96470.00;;;;8325370;28;20761;-70
2023/06/03 22:11:57;;;;;;;3.92;1.80;;;;;15.70;96473.00;;;;8328229;28;20323;-73
2023/06/03 22:16:02;;;;;;;3.45;1.60;;;;;15.70;96479.00;;;;8316484;28;20201;-72
2023/06/03 22:20:07;;;;;;;2.92;1.63;;;;;15.80;96479.00;;;;8309357;28;20205;-69
2023/06/03 22:24:10;;;;;;;5.13;1.80;;;;;15.80;96478.00;;;;8323521;28;22079;-72
2023/06/03 22:28:15;;;;;;;2.95;1.63;;;;;15.90;96483.00;;;;8335314;28;20284;-70
2023/06/03 22:32:20;;;;;;;7.28;1.90;;;;;16.00;96479.00;;;;8342800;28;20235;-70
2023/06/03 22:36:25;;;;;;;1.67;1.52;;;;;16.00;96478.00;;;;8334989;28;20212;-70
2023/06/03 22:40:32;;;;;;;2.88;1.60;;;;;15.90;96478.00;;;;8341344;28;20287;-72
2023/06/03 22:44:37;;;;;;;9.82;1.70;;;;;15.90;96477.00;;;;8338464;28;20670;-72
2023/06/03 22:48:43;;;;;;;1.65;1.55;;;;;15.80;96475.00;;;;8321187;28;20283;-72
2023/06/03 22:52:49;;;;;;;5.97;1.73;;;;;15.70;96472.00;;;;8329439;28;20208;-71
2023/06/03 22:56:55;;;;;;;2.20;1.95;;;;;15.60;96479.00;;;;8348636;28;20295;-71
2023/06/03 23:01:00;;;;;;;2.83;1.60;;;;;15.50;96474.00;;;;8341089;28;20292;-69
2023/06/03 23:05:05;;;;;;;6.13;2.03;;;;;15.40;96477.00;;;;8340524;28;20200;-72
2023/06/03 23:09:08;;;;;;;4.05;2.10;;;;;15.30;96478.00;;;;8333900;28;20563;-71
2023/06/03 23:13:11;;;;;;;3.35;1.83;;;;;15.20;96473.00;;;;8329162;28;20204;-71
2023/06/03 23:17:19;;;;;;;2.53;1.77;;;;;15.10;96474.00;;;;8327696;28;20595;-75
2023/06/03 23:21:24;;;;;;;2.10;1.90;;;;;15.00;96477.00;;;;8337065;28;20288;-70
2023/06/03 23:25:30;;;;;;;4.53;2.00;;;;;14.80;96484.00;;;;8327477;28;20201;-69